createdAt,value
2024-01-20T00:02:18.686Z,60.30
2024-01-20T00:04:45.487Z,59.70
2024-01-20T00:07:12.318Z,59.80
2024-01-20T00:09:46.663Z,59.90
2024-01-20T00:12:17.778Z,59.90
2024-01-20T00:14:45.274Z,60.00
2024-01-20T00:17:21.042Z,60.30
2024-01-20T00:19:54.341Z,59.90
2024-01-20T00:22:22.528Z,59.60
2024-01-20T00:24:50.632Z,59.70
2024-01-20T00:27:18.270Z,59.60
2024-01-20T00:29:46.843Z,59.60
2024-01-20T00:32:14.319Z,59.50
2024-01-20T00:34:51.577Z,59.50
2024-01-20T00:37:26.948Z,59.20
2024-01-20T00:39:53.699Z,59.10
2024-01-20T00:42:20.433Z,59.00
2024-01-20T00:44:47.164Z,59.20
2024-01-20T00:47:14.130Z,59.20
2024-01-20T00:49:40.996Z,59.60
2024-01-20T00:52:08.205Z,59.20
2024-01-20T00:54:34.965Z,59.10
2024-01-20T00:57:02.853Z,59.50
2024-01-20T00:59:29.560Z,58.70
2024-01-20T01:01:56.349Z,58.70
2024-01-20T01:04:23.152Z,58.70
2024-01-20T01:06:49.986Z,58.70
2024-01-20T01:09:17.169Z,58.60
2024-01-20T01:11:43.959Z,58.70
2024-01-20T01:14:10.810Z,58.50
2024-01-20T01:16:37.668Z,58.50
2024-01-20T01:19:05.098Z,58.90
2024-01-20T01:21:31.871Z,59.00
2024-01-20T01:23:58.660Z,59.00
2024-01-20T01:26:28.444Z,59.00
2024-01-20T01:28:56.332Z,58.80
2024-01-20T01:31:23.171Z,58.80
2024-01-20T01:33:50.476Z,59.00
2024-01-20T01:36:18.765Z,59.00
2024-01-20T01:38:45.550Z,58.90
2024-01-20T01:41:12.411Z,59.10
2024-01-20T01:43:39.297Z,59.20
2024-01-20T01:46:06.254Z,59.20
2024-01-20T01:48:34.688Z,59.40
2024-01-20T01:51:04.529Z,59.50
2024-01-20T01:53:33.465Z,59.70
2024-01-20T01:56:02.049Z,59.70
2024-01-20T01:58:29.811Z,59.80
2024-01-20T02:00:56.722Z,59.90
2024-01-20T02:03:24.220Z,60.10
2024-01-20T02:05:51.246Z,60.20
2024-01-20T02:08:18.269Z,60.60
2024-01-20T02:10:47.719Z,60.50
2024-01-20T02:13:16.086Z,60.30
2024-01-20T02:15:43.486Z,60.60
2024-01-20T02:18:10.958Z,60.40
2024-01-20T02:20:38.072Z,60.30
2024-01-20T02:23:04.986Z,60.70
2024-01-20T02:25:31.940Z,60.60
2024-01-20T02:27:58.760Z,60.50
2024-01-20T02:30:25.569Z,60.60
2024-01-20T02:32:52.514Z,60.90
2024-01-20T02:35:22.403Z,60.80
2024-01-20T02:37:50.311Z,60.80
2024-01-20T02:40:18.087Z,60.90
2024-01-20T02:42:45.971Z,61.20
2024-01-20T02:45:14.954Z,61.40
2024-01-20T02:47:42.964Z,61.50
2024-01-20T02:50:09.896Z,61.60
2024-01-20T02:52:36.632Z,61.60
2024-01-20T02:55:03.670Z,61.40
2024-01-20T02:57:30.633Z,61.50
2024-01-20T02:59:58.097Z,61.20
2024-01-20T03:02:25.038Z,61.50
2024-01-20T03:04:51.948Z,61.70
2024-01-20T03:07:19.160Z,61.30
2024-01-20T03:09:45.880Z,61.00
2024-01-20T03:12:13.632Z,61.20
2024-01-20T03:14:40.364Z,61.40
2024-01-20T03:17:07.134Z,61.00
2024-01-20T03:19:33.954Z,60.50
2024-01-20T03:22:00.821Z,60.60
2024-01-20T03:24:27.595Z,60.50
2024-01-20T03:26:57.928Z,60.50
2024-01-20T03:29:26.315Z,60.40
2024-01-20T03:31:53.077Z,60.40
2024-01-20T03:34:20.342Z,60.30
2024-01-20T03:36:48.134Z,60.50
2024-01-20T03:39:14.970Z,60.20
2024-01-20T03:41:41.846Z,60.40
2024-01-20T03:44:08.543Z,60.40
2024-01-20T03:46:35.422Z,60.70
2024-01-20T03:49:02.384Z,60.70
2024-01-20T03:51:29.387Z,61.00
2024-01-20T03:53:56.321Z,60.80
2024-01-20T03:56:23.221Z,60.80
2024-01-20T03:58:50.947Z,60.80
2024-01-20T04:01:17.657Z,60.50
2024-01-20T04:03:44.656Z,60.30
2024-01-20T04:06:11.550Z,60.20
2024-01-20T04:08:38.315Z,60.20
2024-01-20T04:11:05.344Z,60.10
2024-01-20T04:13:32.230Z,59.80
2024-01-20T04:15:58.975Z,59.90
2024-01-20T04:18:25.845Z,60.00
2024-01-20T04:20:52.817Z,59.90
2024-01-20T04:23:21.594Z,59.90
2024-01-20T04:25:48.513Z,59.90
2024-01-20T04:28:15.225Z,60.20
2024-01-20T04:30:42.305Z,60.00
2024-01-20T04:33:09.236Z,60.00
2024-01-20T04:35:36.098Z,60.00
2024-01-20T04:38:04.222Z,59.90
2024-01-20T04:40:31.965Z,59.80
2024-01-20T04:42:58.933Z,59.80
2024-01-20T04:45:25.693Z,60.00
2024-01-20T04:47:52.711Z,59.90
2024-01-20T04:50:19.555Z,60.00
2024-01-20T04:52:47.264Z,59.90
2024-01-20T04:55:14.143Z,59.90
2024-01-20T04:57:40.835Z,59.90
2024-01-20T05:00:08.514Z,59.80
2024-01-20T05:02:36.948Z,59.80
2024-01-20T05:05:04.658Z,59.80
2024-01-20T05:07:32.533Z,59.70
2024-01-20T05:09:59.525Z,59.80
2024-01-20T05:12:27.135Z,59.90
2024-01-20T05:14:55.010Z,60.10
2024-01-20T05:17:21.971Z,60.00
2024-01-20T05:19:48.848Z,60.10
2024-01-20T05:22:18.373Z,60.10
2024-01-20T05:24:45.493Z,60.40
2024-01-20T05:27:12.412Z,60.50
2024-01-20T05:29:39.212Z,60.50
2024-01-20T05:32:06.055Z,60.60
2024-01-20T05:34:33.017Z,60.10
2024-01-20T05:36:59.948Z,59.90
2024-01-20T05:39:26.814Z,59.60
2024-01-20T05:41:53.857Z,59.40
2024-01-20T05:44:21.557Z,59.60
2024-01-20T05:46:48.338Z,59.50
2024-01-20T05:49:15.342Z,59.50
2024-01-20T05:51:42.193Z,59.30
2024-01-20T05:54:09.111Z,59.20
2024-01-20T05:56:35.917Z,59.70
2024-01-20T05:59:02.882Z,59.00
2024-01-20T06:01:29.896Z,58.90
2024-01-20T06:03:57.767Z,59.30
2024-01-20T06:06:24.654Z,59.70
2024-01-20T06:08:51.515Z,60.40
2024-01-20T06:11:18.344Z,59.80
2024-01-20T06:13:45.208Z,60.80
2024-01-20T06:16:13.657Z,60.60
2024-01-20T06:18:40.760Z,60.80
2024-01-20T06:21:07.806Z,60.60
2024-01-20T06:23:35.046Z,60.90
2024-01-20T06:26:02.014Z,60.70
2024-01-20T06:28:28.874Z,60.90
2024-01-20T06:30:55.604Z,62.10
2024-01-20T06:33:22.445Z,61.30
2024-01-20T06:35:49.249Z,61.10
2024-01-20T06:38:16.289Z,61.40
2024-01-20T06:40:43.127Z,61.00
2024-01-20T06:43:10.470Z,61.10
2024-01-20T06:45:37.315Z,61.00
2024-01-20T06:48:06.236Z,60.90
2024-01-20T06:50:33.358Z,61.00
2024-01-20T06:53:00.071Z,60.90
2024-01-20T06:55:26.826Z,61.10
2024-01-20T06:57:53.519Z,61.00
2024-01-20T07:00:20.623Z,61.00
2024-01-20T07:02:47.464Z,61.50
2024-01-20T07:05:14.268Z,61.00
2024-01-20T07:07:42.460Z,61.30
2024-01-20T07:10:10.262Z,61.90
2024-01-20T07:12:37.707Z,62.00
2024-01-20T07:15:06.690Z,62.00
2024-01-20T07:17:33.788Z,62.30
2024-01-20T07:20:00.606Z,62.70
2024-01-20T07:22:27.487Z,62.90
2024-01-20T07:24:55.394Z,63.30
2024-01-20T07:27:22.612Z,63.70
2024-01-20T07:29:51.393Z,63.80
2024-01-20T07:32:18.147Z,64.20
2024-01-20T07:34:44.943Z,64.40
2024-01-20T07:37:12.116Z,64.60
2024-01-20T07:39:39.000Z,64.90
2024-01-20T07:42:07.842Z,65.00
2024-01-20T07:44:35.614Z,65.10
2024-01-20T07:47:02.910Z,65.30
2024-01-20T07:49:29.952Z,65.50
2024-01-20T07:51:56.827Z,65.50
2024-01-20T07:54:23.574Z,65.60
2024-01-20T07:56:50.387Z,65.70
2024-01-20T07:59:18.210Z,65.90
2024-01-20T08:01:45.116Z,66.20
2024-01-20T08:04:12.159Z,66.00
2024-01-20T08:06:39.235Z,66.20
2024-01-20T08:09:07.504Z,66.30
2024-01-20T08:11:34.318Z,66.30
2024-01-20T08:14:01.124Z,66.30
2024-01-20T08:16:29.630Z,66.40
2024-01-20T08:18:57.102Z,66.40
2024-01-20T08:21:25.198Z,66.70
2024-01-20T08:23:52.319Z,66.60
2024-01-20T08:26:19.052Z,66.60
2024-01-20T08:28:45.848Z,66.60
2024-01-20T08:31:12.946Z,66.90
2024-01-20T08:33:40.197Z,67.10
2024-01-20T08:36:07.463Z,67.20
2024-01-20T08:38:34.318Z,67.20
2024-01-20T08:41:07.486Z,67.30
2024-01-20T08:43:34.266Z,67.40
2024-01-20T08:46:00.987Z,67.50
2024-01-20T08:48:30.418Z,67.30
2024-01-20T08:50:57.222Z,67.40
2024-01-20T08:53:23.936Z,67.60
2024-01-20T08:55:50.689Z,67.70
2024-01-20T08:58:17.444Z,67.60
2024-01-20T09:00:44.241Z,67.60
2024-01-20T09:03:11.435Z,67.70
2024-01-20T09:05:39.516Z,67.60
2024-01-20T09:08:09.012Z,67.60
2024-01-20T09:10:37.407Z,67.90
2024-01-20T09:13:08.487Z,68.40
2024-01-20T09:15:35.454Z,68.10
2024-01-20T09:18:02.674Z,68.20
2024-01-20T09:20:29.565Z,68.20
2024-01-20T09:22:56.470Z,68.10
2024-01-20T09:25:23.327Z,68.40
2024-01-20T09:27:50.029Z,68.10
2024-01-20T09:30:16.961Z,68.20
2024-01-20T09:32:43.761Z,68.60
2024-01-20T09:35:10.688Z,68.80
2024-01-20T09:37:38.164Z,69.10
2024-01-20T09:40:06.886Z,69.30
2024-01-20T09:42:34.738Z,69.50
2024-01-20T09:45:02.117Z,69.60
2024-01-20T09:47:28.918Z,70.10
2024-01-20T09:49:55.975Z,69.90
2024-01-20T09:52:30.228Z,69.80
2024-01-20T09:55:11.645Z,70.00
2024-01-20T09:57:40.222Z,70.20
2024-01-20T10:00:09.497Z,69.40
2024-01-20T10:02:38.354Z,69.30
2024-01-20T10:05:06.429Z,69.20
2024-01-20T10:07:33.277Z,69.20
2024-01-20T10:10:00.063Z,69.00
2024-01-20T10:12:26.954Z,69.40
2024-01-20T10:14:54.037Z,69.50
2024-01-20T10:17:21.073Z,69.40
2024-01-20T10:19:48.252Z,69.10
2024-01-20T10:22:15.168Z,68.90
2024-01-20T10:24:52.966Z,69.00
2024-01-20T10:27:26.480Z,69.10
2024-01-20T10:29:53.285Z,69.20
2024-01-20T10:32:21.080Z,69.20
2024-01-20T10:34:47.945Z,68.80
2024-01-20T10:37:15.383Z,68.20
2024-01-20T10:39:46.411Z,67.80
2024-01-20T10:42:15.724Z,67.10
2024-01-20T10:45:06.631Z,66.90
2024-01-20T10:47:38.798Z,67.00
2024-01-20T10:50:07.043Z,66.80
2024-01-20T10:52:37.576Z,66.70
2024-01-20T10:55:06.357Z,65.70
2024-01-20T10:57:33.871Z,65.60
2024-01-20T11:00:05.808Z,65.50
2024-01-20T11:02:33.056Z,65.40
2024-01-20T11:04:59.846Z,64.80
2024-01-20T11:07:33.094Z,64.90
2024-01-20T11:10:00.884Z,65.70
2024-01-20T11:12:29.090Z,65.50
2024-01-20T11:14:57.283Z,65.60
2024-01-20T11:17:24.859Z,65.70
2024-01-20T11:19:52.135Z,65.00
2024-01-20T11:22:32.861Z,64.20
2024-01-20T11:25:05.183Z,63.70
2024-01-20T11:27:32.073Z,64.80
2024-01-20T11:30:09.394Z,64.60
2024-01-20T11:32:36.477Z,64.50
2024-01-20T11:35:05.864Z,64.20
2024-01-20T11:37:32.919Z,63.50
2024-01-20T11:40:09.779Z,63.70
2024-01-20T11:42:37.395Z,63.30
2024-01-20T11:45:05.149Z,63.80
2024-01-20T11:47:33.038Z,63.10
2024-01-20T11:50:00.623Z,63.30
2024-01-20T11:52:27.556Z,63.60
2024-01-20T11:54:54.548Z,63.80
2024-01-20T11:57:27.868Z,63.60
2024-01-20T11:59:54.914Z,63.00
2024-01-20T12:02:22.170Z,62.60
2024-01-20T12:04:50.246Z,62.30
2024-01-20T12:07:18.429Z,62.50
2024-01-20T12:09:46.821Z,62.20
2024-01-20T12:12:15.457Z,62.60
2024-01-20T12:14:45.839Z,62.10
2024-01-20T12:17:13.764Z,61.90
2024-01-20T12:19:41.563Z,61.90
2024-01-20T12:22:15.914Z,62.70
2024-01-20T12:24:49.953Z,62.00
2024-01-20T12:27:17.686Z,63.00
2024-01-20T12:29:44.515Z,61.90
2024-01-20T12:32:11.715Z,60.60
2024-01-20T12:34:38.715Z,59.90
2024-01-20T12:37:07.461Z,59.60
2024-01-20T12:39:35.804Z,59.30
2024-01-20T12:42:03.389Z,59.20
2024-01-20T12:44:30.202Z,59.50
2024-01-20T12:46:57.228Z,58.90
2024-01-20T12:49:24.622Z,58.60
2024-01-20T12:51:51.457Z,58.30
2024-01-20T12:54:18.239Z,58.60
2024-01-20T12:56:46.455Z,60.80
2024-01-20T12:59:13.395Z,58.70
2024-01-20T13:01:40.161Z,58.10
2024-01-20T13:04:06.934Z,56.80
2024-01-20T13:06:33.908Z,57.30
2024-01-20T13:09:00.911Z,57.50
2024-01-20T13:11:29.374Z,57.00
2024-01-20T13:13:57.314Z,56.20
2024-01-20T13:16:24.133Z,56.10
2024-01-20T13:18:53.331Z,55.60
2024-01-20T13:21:20.560Z,55.90
2024-01-20T13:23:47.780Z,56.10
2024-01-20T13:26:14.562Z,56.30
2024-01-20T13:28:41.426Z,56.30
2024-01-20T13:31:08.264Z,56.10
2024-01-20T13:33:35.192Z,55.60
2024-01-20T13:36:02.042Z,55.30
2024-01-20T13:38:28.930Z,55.40
2024-01-20T13:40:55.669Z,55.10
2024-01-20T13:43:22.474Z,54.50
2024-01-20T13:45:49.210Z,54.90
2024-01-20T13:48:17.067Z,54.90
2024-01-20T13:50:43.912Z,54.80
2024-01-20T13:53:10.793Z,56.00
2024-01-20T13:55:38.221Z,54.30
2024-01-20T13:58:04.987Z,53.60
2024-01-20T14:00:31.757Z,54.70
2024-01-20T14:02:58.606Z,53.40
2024-01-20T14:05:25.384Z,53.30
2024-01-20T14:07:52.115Z,53.20
2024-01-20T14:10:18.871Z,52.70
2024-01-20T14:12:46.705Z,52.20
2024-01-20T14:15:13.631Z,52.40
2024-01-20T14:17:40.817Z,52.10
2024-01-20T14:20:08.322Z,52.10
2024-01-20T14:22:35.024Z,52.10
2024-01-20T14:25:05.490Z,52.30
2024-01-20T14:27:34.195Z,52.70
2024-01-20T14:30:01.068Z,52.40
2024-01-20T14:32:27.892Z,52.10
2024-01-20T14:34:55.141Z,51.80
2024-01-20T14:37:22.023Z,50.40
2024-01-20T14:39:48.744Z,50.70
2024-01-20T14:42:15.860Z,50.50
2024-01-20T14:44:43.156Z,51.30
2024-01-20T14:47:10.171Z,51.50
2024-01-20T14:49:36.993Z,51.70
2024-01-20T14:52:03.980Z,51.90
2024-01-20T14:54:30.807Z,51.30
2024-01-20T14:56:57.513Z,52.00
2024-01-20T14:59:24.292Z,52.00
2024-01-20T15:01:50.940Z,51.70
2024-01-20T15:04:17.893Z,52.10
2024-01-20T15:06:44.880Z,51.90
2024-01-20T15:09:11.788Z,50.80
2024-01-20T15:11:39.748Z,50.60
2024-01-20T15:14:08.934Z,49.90
2024-01-20T15:16:36.466Z,50.30
2024-01-20T15:19:07.257Z,50.60
2024-01-20T15:21:34.238Z,50.50
2024-01-20T15:24:01.160Z,50.20
2024-01-20T15:26:27.909Z,50.40
2024-01-20T15:28:54.697Z,51.30
2024-01-20T15:31:21.471Z,51.10
2024-01-20T15:33:48.791Z,52.10
2024-01-20T15:36:19.184Z,51.40
2024-01-20T15:38:46.085Z,50.80
2024-01-20T15:41:12.942Z,51.20
2024-01-20T15:43:39.726Z,51.10
2024-01-20T15:46:06.467Z,52.10
2024-01-20T15:48:33.311Z,50.50
2024-01-20T15:51:00.267Z,51.40
2024-01-20T15:53:27.162Z,50.80
2024-01-20T15:55:54.683Z,50.50
2024-01-20T15:58:21.396Z,50.20
2024-01-20T16:00:48.206Z,49.70
2024-01-20T16:03:15.056Z,49.80
2024-01-20T16:05:41.924Z,49.80
2024-01-20T16:08:10.299Z,50.00
2024-01-20T16:10:37.119Z,50.00
2024-01-20T16:13:03.994Z,50.10
2024-01-20T16:15:30.750Z,50.10
2024-01-20T16:17:57.795Z,50.10
2024-01-20T16:20:24.731Z,50.40
2024-01-20T16:22:51.504Z,50.50
2024-01-20T16:25:18.563Z,50.20
2024-01-20T16:27:48.468Z,50.30
2024-01-20T16:30:15.527Z,50.40
2024-01-20T16:32:42.327Z,50.70
2024-01-20T16:35:09.973Z,50.60
2024-01-20T16:37:37.417Z,50.20
2024-01-20T16:40:05.622Z,50.30
2024-01-20T16:42:32.454Z,50.10
2024-01-20T16:44:59.378Z,50.40
2024-01-20T16:47:26.318Z,49.90
2024-01-20T16:49:53.385Z,50.50
2024-01-20T16:52:20.259Z,51.80
2024-01-20T16:54:46.998Z,50.40
2024-01-20T16:57:15.352Z,50.60
2024-01-20T16:59:42.992Z,50.00
2024-01-20T17:02:09.688Z,49.80
2024-01-20T17:04:36.795Z,48.80
2024-01-20T17:07:04.067Z,49.50
2024-01-20T17:09:33.128Z,49.50
2024-01-20T17:12:01.020Z,49.40
2024-01-20T17:14:27.904Z,49.30
2024-01-20T17:16:54.694Z,49.50
2024-01-20T17:19:21.581Z,49.60
2024-01-20T17:21:48.433Z,50.50
2024-01-20T17:24:15.836Z,49.50
2024-01-20T17:26:42.806Z,49.10
2024-01-20T17:29:10.341Z,49.10
2024-01-20T17:31:38.947Z,49.10
2024-01-20T17:34:06.889Z,49.20
2024-01-20T17:36:33.871Z,49.70
2024-01-20T17:39:01.564Z,49.80
2024-01-20T17:41:28.536Z,48.40
2024-01-20T17:43:55.349Z,48.20
2024-01-20T17:46:22.056Z,47.90
2024-01-20T17:48:49.639Z,48.00
2024-01-20T17:51:16.657Z,48.90
2024-01-20T17:53:43.403Z,47.60
2024-01-20T17:56:10.123Z,47.80
2024-01-20T17:58:36.908Z,47.20
2024-01-20T18:01:03.766Z,47.50
2024-01-20T18:03:30.738Z,47.80
2024-01-20T18:05:57.706Z,48.40
2024-01-20T18:08:25.755Z,48.80
2024-01-20T18:10:52.665Z,48.10
2024-01-20T18:13:19.457Z,48.10
2024-01-20T18:15:46.474Z,48.30
2024-01-20T18:18:13.775Z,48.30
2024-01-20T18:20:40.832Z,48.40
2024-01-20T18:23:07.805Z,48.20
2024-01-20T18:25:35.619Z,48.20
2024-01-20T18:28:03.093Z,48.60
2024-01-20T18:30:29.870Z,48.40
2024-01-20T18:32:56.735Z,48.00
2024-01-20T18:35:23.525Z,47.80
2024-01-20T18:37:50.541Z,47.30
2024-01-20T18:40:17.373Z,47.30
2024-01-20T18:42:46.876Z,47.20
2024-01-20T18:45:14.015Z,47.40
2024-01-20T18:47:41.517Z,48.00
2024-01-20T18:50:12.646Z,47.70
2024-01-20T18:52:39.545Z,47.20
2024-01-20T18:55:06.572Z,47.30
2024-01-20T18:57:33.633Z,47.50
2024-01-20T19:00:01.259Z,47.50
2024-01-20T19:02:27.921Z,47.60
2024-01-20T19:04:54.760Z,48.10
2024-01-20T19:07:21.655Z,47.90
2024-01-20T19:09:48.607Z,47.50
2024-01-20T19:12:15.522Z,48.90
2024-01-20T19:14:42.919Z,46.80
2024-01-20T19:17:14.428Z,46.90
2024-01-20T19:19:41.514Z,46.90
2024-01-20T19:22:08.335Z,46.80
2024-01-20T19:24:35.843Z,47.10
2024-01-20T19:27:02.796Z,46.80
2024-01-20T19:29:29.562Z,46.50
2024-01-20T19:31:56.297Z,46.90
2024-01-20T19:34:23.235Z,46.90
2024-01-20T19:36:50.138Z,46.70
2024-01-20T19:39:17.028Z,46.60
2024-01-20T19:41:43.813Z,47.70
2024-01-20T19:44:10.519Z,47.70
2024-01-20T19:46:40.955Z,47.20
2024-01-20T19:49:07.917Z,46.90
2024-01-20T19:51:35.021Z,46.60
2024-01-20T19:54:01.857Z,47.20
2024-01-20T19:56:28.623Z,47.00
2024-01-20T19:58:55.328Z,46.80
2024-01-20T20:01:23.172Z,47.10
2024-01-20T20:03:50.746Z,47.00
2024-01-20T20:06:17.689Z,46.70
2024-01-20T20:08:44.509Z,47.20
2024-01-20T20:11:11.769Z,47.10
2024-01-20T20:13:41.029Z,47.80
2024-01-20T20:16:10.615Z,47.90
2024-01-20T20:18:37.598Z,47.80
2024-01-20T20:21:04.868Z,47.90
2024-01-20T20:23:31.615Z,46.90
2024-01-20T20:25:58.404Z,46.90
2024-01-20T20:28:25.175Z,46.50
2024-01-20T20:30:57.399Z,46.80
2024-01-20T20:33:30.794Z,47.20
2024-01-20T20:35:57.646Z,49.00
2024-01-20T20:38:24.623Z,47.20
2024-01-20T20:40:51.642Z,46.90
2024-01-20T20:43:18.459Z,47.00
2024-01-20T20:45:45.194Z,47.30
2024-01-20T20:48:12.104Z,46.90
2024-01-20T20:50:39.662Z,46.30
2024-01-20T20:53:06.404Z,46.50
2024-01-20T20:55:33.368Z,47.00
2024-01-20T20:58:00.122Z,46.30
2024-01-20T21:00:26.939Z,46.20
2024-01-20T21:02:53.723Z,47.10
2024-01-20T21:05:21.824Z,46.90
2024-01-20T21:07:49.663Z,46.70
2024-01-20T21:10:18.338Z,47.50
2024-01-20T21:12:46.069Z,46.40
2024-01-20T21:15:13.756Z,46.40
2024-01-20T21:17:41.408Z,46.80
2024-01-20T21:20:12.635Z,47.40
2024-01-20T21:22:39.632Z,49.50
2024-01-20T21:25:07.143Z,48.10
2024-01-20T21:27:34.090Z,48.10
2024-01-20T21:30:00.924Z,48.10
2024-01-20T21:32:28.258Z,48.00
2024-01-20T21:34:55.968Z,47.40
2024-01-20T21:37:24.895Z,48.30
2024-01-20T21:39:51.849Z,49.60
2024-01-20T21:42:19.968Z,48.00
2024-01-20T21:44:46.893Z,48.50
2024-01-20T21:47:14.153Z,48.60
2024-01-20T21:49:41.047Z,47.80
2024-01-20T21:52:08.006Z,48.00
2024-01-20T21:54:34.770Z,47.10
2024-01-20T21:57:01.511Z,50.00
2024-01-20T21:59:28.590Z,49.30
2024-01-20T22:01:55.486Z,48.90
2024-01-20T22:04:24.855Z,48.90
2024-01-20T22:06:51.785Z,49.10
2024-01-20T22:09:18.722Z,47.60
2024-01-20T22:11:45.548Z,50.10
2024-01-20T22:14:12.366Z,47.00
2024-01-20T22:16:39.193Z,48.60
2024-01-20T22:19:07.369Z,47.70
2024-01-20T22:21:34.325Z,47.70
2024-01-20T22:24:01.132Z,47.20
2024-01-20T22:26:27.857Z,46.60
2024-01-20T22:28:55.796Z,48.20
2024-01-20T22:31:23.820Z,52.80
2024-01-20T22:33:50.669Z,48.80
2024-01-20T22:36:18.458Z,47.60
2024-01-20T22:38:46.623Z,46.30
2024-01-20T22:41:17.418Z,45.00
2024-01-20T22:43:45.724Z,44.90
2024-01-20T22:46:16.972Z,45.00
2024-01-20T22:48:44.226Z,45.50
2024-01-20T22:51:20.142Z,47.10
2024-01-20T22:53:47.034Z,47.60
2024-01-20T22:56:14.533Z,44.20
2024-01-20T22:58:41.339Z,43.90
2024-01-20T23:01:08.137Z,46.20
2024-01-20T23:03:35.138Z,44.40
2024-01-20T23:06:02.992Z,43.60
2024-01-20T23:08:29.960Z,44.40
2024-01-20T23:10:56.858Z,45.90
2024-01-20T23:13:23.785Z,45.90
2024-01-20T23:15:50.585Z,44.70
2024-01-20T23:18:17.494Z,45.10
2024-01-20T23:20:44.339Z,47.50
2024-01-20T23:23:12.398Z,48.20
2024-01-20T23:25:39.146Z,49.40
2024-01-20T23:28:06.043Z,45.30
2024-01-20T23:30:32.905Z,45.90
2024-01-20T23:33:00.173Z,46.90
2024-01-20T23:35:27.472Z,44.80
2024-01-20T23:37:54.217Z,45.20
2024-01-20T23:40:20.924Z,46.90
2024-01-20T23:42:47.705Z,49.40
2024-01-20T23:45:14.626Z,44.90
2024-01-20T23:47:41.437Z,47.20
2024-01-20T23:50:08.639Z,42.90
2024-01-20T23:52:36.394Z,44.30
2024-01-20T23:55:03.199Z,42.00
2024-01-20T23:57:30.145Z,45.00
2024-01-20T23:59:57.026Z,42.90
